sensor_id;sensor_type;location;lat;lon;timestamp;P1;durP1;ratioP1;P2;durP2;ratioP2
22060;SDS011;11194;48.092;-1.382;2023-04-25T00:01:31;11.15;;;6.70;;
22060;SDS011;11194;48.092;-1.382;2023-04-25T00:04:01;16.20;;;7.03;;
22060;SDS011;11194;48.092;-1.382;2023-04-25T00:06:27;10.65;;;6.55;;
22060;SDS011;11194;48.092;-1.382;2023-04-25T00:08:55;14.20;;;6.60;;
22060;SDS011;11194;48.092;-1.382;2023-04-25T00:11:21;14.88;;;7.15;;
22060;SDS011;11194;48.092;-1.382;2023-04-25T00:13:47;15.52;;;6.88;;
22060;SDS011;11194;48.092;-1.382;2023-04-25T00:16:14;12.25;;;6.40;;
22060;SDS011;11194;48.092;-1.382;2023-04-25T00:18:41;13.07;;;6.70;;
22060;SDS011;11194;48.092;-1.382;2023-04-25T00:21:07;16.00;;;6.85;;
22060;SDS011;11194;48.092;-1.382;2023-04-25T00:23:34;14.38;;;6.82;;
22060;SDS011;11194;48.092;-1.382;2023-04-25T00:26:01;16.98;;;6.95;;
22060;SDS011;11194;48.092;-1.382;2023-04-25T00:28:27;16.42;;;8.10;;
22060;SDS011;11194;48.092;-1.382;2023-04-25T00:30:53;16.98;;;7.65;;
22060;SDS011;11194;48.092;-1.382;2023-04-25T00:33:19;14.93;;;6.68;;
22060;SDS011;11194;48.092;-1.382;2023-04-25T00:35:46;12.90;;;6.82;;
22060;SDS011;11194;48.092;-1.382;2023-04-25T00:38:12;13.93;;;7.13;;
22060;SDS011;11194;48.092;-1.382;2023-04-25T00:40:38;11.23;;;6.38;;
22060;SDS011;11194;48.092;-1.382;2023-04-25T00:43:04;18.58;;;7.85;;
22060;SDS011;11194;48.092;-1.382;2023-04-25T00:45:30;12.27;;;6.88;;
22060;SDS011;11194;48.092;-1.382;2023-04-25T00:47:56;19.35;;;8.18;;
22060;SDS011;11194;48.092;-1.382;2023-04-25T00:50:23;15.07;;;7.75;;
22060;SDS011;11194;48.092;-1.382;2023-04-25T00:52:49;16.65;;;7.55;;
22060;SDS011;11194;48.092;-1.382;2023-04-25T00:55:15;20.20;;;7.63;;
22060;SDS011;11194;48.092;-1.382;2023-04-25T00:57:42;17.20;;;7.75;;
22060;SDS011;11194;48.092;-1.382;2023-04-25T01:00:08;13.13;;;7.70;;
22060;SDS011;11194;48.092;-1.382;2023-04-25T01:02:36;15.50;;;7.20;;
22060;SDS011;11194;48.092;-1.382;2023-04-25T01:05:02;17.23;;;7.07;;
22060;SDS011;11194;48.092;-1.382;2023-04-25T01:07:29;13.95;;;7.35;;
22060;SDS011;11194;48.092;-1.382;2023-04-25T01:09:55;15.40;;;6.88;;
22060;SDS011;11194;48.092;-1.382;2023-04-25T01:12:21;15.68;;;6.40;;
22060;SDS011;11194;48.092;-1.382;2023-04-25T01:14:48;17.13;;;7.28;;
22060;SDS011;11194;48.092;-1.382;2023-04-25T01:17:14;14.30;;;6.47;;
22060;SDS011;11194;48.092;-1.382;2023-04-25T01:19:41;7.97;;;6.07;;
22060;SDS011;11194;48.092;-1.382;2023-04-25T01:22:07;11.75;;;7.68;;
22060;SDS011;11194;48.092;-1.382;2023-04-25T01:24:35;19.30;;;7.90;;
22060;SDS011;11194;48.092;-1.382;2023-04-25T01:27:02;17.33;;;6.90;;
22060;SDS011;11194;48.092;-1.382;2023-04-25T01:29:29;23.08;;;8.57;;
22060;SDS011;11194;48.092;-1.382;2023-04-25T04:01:16;18.25;;;7.45;;
22060;SDS011;11194;48.092;-1.382;2023-04-25T04:03:42;13.68;;;6.72;;
22060;SDS011;11194;48.092;-1.382;2023-04-25T04:06:08;15.32;;;6.80;;
22060;SDS011;11194;48.092;-1.382;2023-04-25T04:08:35;17.10;;;7.22;;
22060;SDS011;11194;48.092;-1.382;2023-04-25T04:11:01;14.02;;;6.43;;
22060;SDS011;11194;48.092;-1.382;2023-04-25T04:13:28;17.60;;;7.20;;
22060;SDS011;11194;48.092;-1.382;2023-04-25T04:15:54;15.02;;;6.72;;
22060;SDS011;11194;48.092;-1.382;2023-04-25T04:18:21;12.77;;;6.82;;
22060;SDS011;11194;48.092;-1.382;2023-04-25T04:20:47;12.73;;;6.18;;
22060;SDS011;11194;48.092;-1.382;2023-04-25T04:23:13;17.40;;;7.82;;
22060;SDS011;11194;48.092;-1.382;2023-04-25T04:25:39;13.48;;;7.15;;
22060;SDS011;11194;48.092;-1.382;2023-04-25T04:28:06;13.63;;;7.28;;
22060;SDS011;11194;48.092;-1.382;2023-04-25T04:30:32;14.43;;;7.43;;
22060;SDS011;11194;48.092;-1.382;2023-04-25T04:33:01;18.88;;;7.47;;
22060;SDS011;11194;48.092;-1.382;2023-04-25T04:35:27;13.05;;;7.13;;
22060;SDS011;11194;48.092;-1.382;2023-04-25T04:37:53;13.57;;;6.88;;
22060;SDS011;11194;48.092;-1.382;2023-04-25T04:40:21;12.45;;;7.70;;
22060;SDS011;11194;48.092;-1.382;2023-04-25T04:42:47;11.68;;;7.20;;
22060;SDS011;11194;48.092;-1.382;2023-04-25T04:45:14;17.80;;;7.60;;
22060;SDS011;11194;48.092;-1.382;2023-04-25T04:47:41;13.23;;;6.95;;
22060;SDS011;11194;48.092;-1.382;2023-04-25T04:50:08;14.52;;;7.82;;
22060;SDS011;11194;48.092;-1.382;2023-04-25T04:52:35;17.33;;;7.28;;
22060;SDS011;11194;48.092;-1.382;2023-04-25T04:55:01;16.70;;;7.07;;
22060;SDS011;11194;48.092;-1.382;2023-04-25T04:57:28;14.52;;;8.20;;
22060;SDS011;11194;48.092;-1.382;2023-04-25T04:59:54;18.38;;;8.13;;
22060;SDS011;11194;48.092;-1.382;2023-04-25T05:02:20;11.95;;;8.18;;
22060;SDS011;11194;48.092;-1.382;2023-04-25T05:04:46;14.65;;;7.95;;
22060;SDS011;11194;48.092;-1.382;2023-04-25T05:07:12;22.85;;;9.23;;
22060;SDS011;11194;48.092;-1.382;2023-04-25T05:09:38;16.95;;;9.10;;
22060;SDS011;11194;48.092;-1.382;2023-04-25T05:12:05;20.52;;;9.23;;
22060;SDS011;11194;48.092;-1.382;2023-04-25T05:14:31;14.77;;;8.40;;
22060;SDS011;11194;48.092;-1.382;2023-04-25T05:16:57;15.90;;;8.90;;
22060;SDS011;11194;48.092;-1.382;2023-04-25T05:19:23;18.27;;;9.57;;
22060;SDS011;11194;48.092;-1.382;2023-04-25T05:21:49;13.25;;;8.43;;
22060;SDS011;11194;48.092;-1.382;2023-04-25T05:24:15;17.58;;;9.10;;
22060;SDS011;11194;48.092;-1.382;2023-04-25T05:26:41;13.55;;;8.57;;
22060;SDS011;11194;48.092;-1.382;2023-04-25T05:29:07;17.88;;;8.63;;
22060;SDS011;11194;48.092;-1.382;2023-04-25T05:31:33;16.10;;;8.55;;
22060;SDS011;11194;48.092;-1.382;2023-04-25T05:34:00;14.90;;;8.35;;
22060;SDS011;11194;48.092;-1.382;2023-04-25T05:36:26;16.95;;;7.97;;
22060;SDS011;11194;48.092;-1.382;2023-04-25T05:38:52;18.08;;;8.88;;
22060;SDS011;11194;48.092;-1.382;2023-04-25T05:41:18;18.33;;;9.18;;
22060;SDS011;11194;48.092;-1.382;2023-04-25T05:43:45;25.10;;;10.07;;
22060;SDS011;11194;48.092;-1.382;2023-04-25T05:46:13;20.00;;;9.80;;
22060;SDS011;11194;48.092;-1.382;2023-04-25T05:48:40;19.20;;;8.98;;
22060;SDS011;11194;48.092;-1.382;2023-04-25T05:51:06;16.45;;;9.05;;
22060;SDS011;11194;48.092;-1.382;2023-04-25T05:53:32;19.08;;;9.50;;
22060;SDS011;11194;48.092;-1.382;2023-04-25T05:55:58;19.90;;;9.73;;
22060;SDS011;11194;48.092;-1.382;2023-04-25T05:58:24;17.92;;;9.63;;
22060;SDS011;11194;48.092;-1.382;2023-04-25T06:00:50;20.30;;;9.52;;
22060;SDS011;11194;48.092;-1.382;2023-04-25T06:03:16;20.77;;;9.43;;
22060;SDS011;11194;48.092;-1.382;2023-04-25T06:05:42;18.35;;;10.00;;
22060;SDS011;11194;48.092;-1.382;2023-04-25T06:08:09;17.45;;;8.93;;
22060;SDS011;11194;48.092;-1.382;2023-04-25T06:10:38;15.18;;;9.07;;
22060;SDS011;11194;48.092;-1.382;2023-04-25T06:13:04;15.95;;;8.88;;
22060;SDS011;11194;48.092;-1.382;2023-04-25T06:15:30;18.00;;;9.15;;
22060;SDS011;11194;48.092;-1.382;2023-04-25T06:17:59;16.33;;;8.60;;
22060;SDS011;11194;48.092;-1.382;2023-04-25T06:20:25;19.83;;;10.15;;
22060;SDS011;11194;48.092;-1.382;2023-04-25T06:22:51;18.52;;;9.57;;
22060;SDS011;11194;48.092;-1.382;2023-04-25T06:25:18;19.67;;;9.15;;
22060;SDS011;11194;48.092;-1.382;2023-04-25T06:27:44;20.08;;;9.98;;
22060;SDS011;11194;48.092;-1.382;2023-04-25T06:30:10;16.92;;;10.88;;
22060;SDS011;11194;48.092;-1.382;2023-04-25T06:32:37;20.10;;;9.93;;
22060;SDS011;11194;48.092;-1.382;2023-04-25T06:35:03;21.42;;;11.27;;
22060;SDS011;11194;48.092;-1.382;2023-04-25T06:37:30;19.92;;;8.93;;
22060;SDS011;11194;48.092;-1.382;2023-04-25T06:39:56;16.88;;;9.30;;
22060;SDS011;11194;48.092;-1.382;2023-04-25T06:42:22;20.10;;;9.02;;
22060;SDS011;11194;48.092;-1.382;2023-04-25T06:44:48;15.85;;;9.63;;
22060;SDS011;11194;48.092;-1.382;2023-04-25T06:47:14;16.77;;;9.35;;
22060;SDS011;11194;48.092;-1.382;2023-04-25T06:49:40;15.75;;;8.32;;
22060;SDS011;11194;48.092;-1.382;2023-04-25T06:52:07;14.75;;;8.90;;
22060;SDS011;11194;48.092;-1.382;2023-04-25T06:54:33;16.52;;;9.95;;
22060;SDS011;11194;48.092;-1.382;2023-04-25T06:56:59;20.75;;;10.00;;
22060;SDS011;11194;48.092;-1.382;2023-04-25T06:59:26;25.58;;;11.98;;
22060;SDS011;11194;48.092;-1.382;2023-04-25T07:01:52;20.13;;;9.93;;
22060;SDS011;11194;48.092;-1.382;2023-04-25T07:04:18;18.00;;;10.90;;
22060;SDS011;11194;48.092;-1.382;2023-04-25T07:06:44;18.45;;;9.75;;
22060;SDS011;11194;48.092;-1.382;2023-04-25T07:09:12;20.85;;;10.85;;
22060;SDS011;11194;48.092;-1.382;2023-04-25T07:11:38;17.13;;;9.63;;
22060;SDS011;11194;48.092;-1.382;2023-04-25T07:14:04;20.58;;;10.27;;
22060;SDS011;11194;48.092;-1.382;2023-04-25T07:16:30;17.13;;;9.18;;
22060;SDS011;11194;48.092;-1.382;2023-04-25T07:18:56;17.73;;;9.40;;
22060;SDS011;11194;48.092;-1.382;2023-04-25T07:21:22;13.93;;;8.88;;
22060;SDS011;11194;48.092;-1.382;2023-04-25T07:23:48;11.25;;;7.90;;
22060;SDS011;11194;48.092;-1.382;2023-04-25T07:26:14;14.90;;;8.00;;
22060;SDS011;11194;48.092;-1.382;2023-04-25T07:28:41;12.13;;;8.43;;
22060;SDS011;11194;48.092;-1.382;2023-04-25T07:31:07;12.02;;;8.10;;
22060;SDS011;11194;48.092;-1.382;2023-04-25T07:33:33;12.93;;;9.13;;
22060;SDS011;11194;48.092;-1.382;2023-04-25T07:35:59;12.00;;;8.65;;
22060;SDS011;11194;48.092;-1.382;2023-04-25T07:38:25;11.93;;;9.23;;
22060;SDS011;11194;48.092;-1.382;2023-04-25T07:40:51;13.75;;;10.35;;
22060;SDS011;11194;48.092;-1.382;2023-04-25T07:43:18;17.63;;;12.75;;
22060;SDS011;11194;48.092;-1.382;2023-04-25T07:45:44;19.67;;;11.85;;
22060;SDS011;11194;48.092;-1.382;2023-04-25T07:48:10;17.17;;;12.07;;
22060;SDS011;11194;48.092;-1.382;2023-04-25T07:50:36;17.77;;;13.27;;
22060;SDS011;11194;48.092;-1.382;2023-04-25T07:53:02;15.80;;;11.52;;
22060;SDS011;11194;48.092;-1.382;2023-04-25T07:55:28;17.73;;;11.50;;
22060;SDS011;11194;48.092;-1.382;2023-04-25T07:57:54;10.50;;;7.28;;
22060;SDS011;11194;48.092;-1.382;2023-04-25T08:00:20;11.35;;;7.57;;
22060;SDS011;11194;48.092;-1.382;2023-04-25T08:02:47;9.45;;;6.47;;
22060;SDS011;11194;48.092;-1.382;2023-04-25T08:05:13;9.63;;;6.25;;
22060;SDS011;11194;48.092;-1.382;2023-04-25T08:07:40;10.32;;;6.22;;
22060;SDS011;11194;48.092;-1.382;2023-04-25T08:10:07;8.75;;;5.32;;
22060;SDS011;11194;48.092;-1.382;2023-04-25T08:12:33;8.73;;;5.65;;
22060;SDS011;11194;48.092;-1.382;2023-04-25T08:14:59;12.30;;;5.97;;
22060;SDS011;11194;48.092;-1.382;2023-04-25T08:17:25;8.93;;;5.60;;
22060;SDS011;11194;48.092;-1.382;2023-04-25T08:19:51;12.82;;;5.65;;
22060;SDS011;11194;48.092;-1.382;2023-04-25T08:22:17;9.13;;;5.40;;
22060;SDS011;11194;48.092;-1.382;2023-04-25T08:24:43;8.55;;;5.50;;
22060;SDS011;11194;48.092;-1.382;2023-04-25T08:27:09;11.60;;;5.70;;
22060;SDS011;11194;48.092;-1.382;2023-04-25T08:29:36;7.95;;;4.70;;
22060;SDS011;11194;48.092;-1.382;2023-04-25T08:32:02;11.68;;;6.82;;
22060;SDS011;11194;48.092;-1.382;2023-04-25T08:34:28;10.32;;;6.53;;
22060;SDS011;11194;48.092;-1.382;2023-04-25T08:36:54;12.68;;;5.85;;
22060;SDS011;11194;48.092;-1.382;2023-04-25T08:39:20;11.32;;;5.28;;
22060;SDS011;11194;48.092;-1.382;2023-04-25T08:41:46;8.30;;;4.47;;
22060;SDS011;11194;48.092;-1.382;2023-04-25T08:44:13;8.73;;;4.78;;
22060;SDS011;11194;48.092;-1.382;2023-04-25T08:46:40;9.57;;;5.15;;
22060;SDS011;11194;48.092;-1.382;2023-04-25T08:49:06;10.02;;;5.18;;
22060;SDS011;11194;48.092;-1.382;2023-04-25T08:51:34;7.82;;;4.47;;
22060;SDS011;11194;48.092;-1.382;2023-04-25T08:54:11;10.52;;;5.65;;
22060;SDS011;11194;48.092;-1.382;2023-04-25T08:56:41;9.23;;;5.15;;
22060;SDS011;11194;48.092;-1.382;2023-04-25T08:59:10;7.75;;;4.88;;
22060;SDS011;11194;48.092;-1.382;2023-04-25T09:01:36;10.63;;;4.68;;
22060;SDS011;11194;48.092;-1.382;2023-04-25T09:04:02;6.63;;;4.40;;
22060;SDS011;11194;48.092;-1.382;2023-04-25T09:06:29;9.23;;;4.80;;
22060;SDS011;11194;48.092;-1.382;2023-04-25T09:09:02;8.55;;;4.55;;
22060;SDS011;11194;48.092;-1.382;2023-04-25T09:11:29;5.80;;;3.28;;
22060;SDS011;11194;48.092;-1.382;2023-04-25T09:19:22;8.27;;;5.38;;
22060;SDS011;11194;48.092;-1.382;2023-04-25T09:21:50;6.35;;;4.30;;
22060;SDS011;11194;48.092;-1.382;2023-04-25T09:24:16;8.38;;;4.97;;
22060;SDS011;11194;48.092;-1.382;2023-04-25T09:26:45;9.23;;;4.70;;
22060;SDS011;11194;48.092;-1.382;2023-04-25T09:29:11;7.45;;;4.88;;
22060;SDS011;11194;48.092;-1.382;2023-04-25T09:31:37;8.77;;;6.13;;
22060;SDS011;11194;48.092;-1.382;2023-04-25T09:34:03;5.80;;;4.05;;
22060;SDS011;11194;48.092;-1.382;2023-04-25T09:36:30;8.57;;;4.35;;
22060;SDS011;11194;48.092;-1.382;2023-04-25T09:38:57;7.30;;;3.97;;
22060;SDS011;11194;48.092;-1.382;2023-04-25T09:41:26;8.05;;;5.05;;
22060;SDS011;11194;48.092;-1.382;2023-04-25T09:43:52;6.88;;;4.15;;
22060;SDS011;11194;48.092;-1.382;2023-04-25T09:46:23;7.13;;;4.13;;
22060;SDS011;11194;48.092;-1.382;2023-04-25T09:48:50;8.00;;;4.80;;
22060;SDS011;11194;48.092;-1.382;2023-04-25T09:51:16;8.80;;;5.35;;
22060;SDS011;11194;48.092;-1.382;2023-04-25T09:53:43;8.48;;;5.55;;
22060;SDS011;11194;48.092;-1.382;2023-04-25T09:56:11;6.10;;;3.67;;
22060;SDS011;11194;48.092;-1.382;2023-04-25T09:58:38;10.02;;;5.70;;
22060;SDS011;11194;48.092;-1.382;2023-04-25T10:01:05;8.82;;;4.68;;
22060;SDS011;11194;48.092;-1.382;2023-04-25T10:03:34;7.05;;;4.47;;
22060;SDS011;11194;48.092;-1.382;2023-04-25T10:06:01;6.00;;;3.90;;
22060;SDS011;11194;48.092;-1.382;2023-04-25T10:08:32;6.72;;;3.53;;
22060;SDS011;11194;48.092;-1.382;2023-04-25T10:11:03;6.22;;;3.70;;
22060;SDS011;11194;48.092;-1.382;2023-04-25T10:13:30;5.35;;;3.72;;
22060;SDS011;11194;48.092;-1.382;2023-04-25T10:16:01;7.85;;;4.47;;
22060;SDS011;11194;48.092;-1.382;2023-04-25T10:18:28;5.13;;;3.50;;
22060;SDS011;11194;48.092;-1.382;2023-04-25T10:20:54;6.90;;;4.38;;
22060;SDS011;11194;48.092;-1.382;2023-04-25T10:23:21;8.52;;;4.80;;
22060;SDS011;11194;48.092;-1.382;2023-04-25T10:25:47;6.38;;;4.30;;
22060;SDS011;11194;48.092;-1.382;2023-04-25T10:28:13;5.72;;;3.75;;
22060;SDS011;11194;48.092;-1.382;2023-04-25T10:30:56;5.65;;;3.63;;
22060;SDS011;11194;48.092;-1.382;2023-04-25T10:33:29;3.97;;;3.00;;
22060;SDS011;11194;48.092;-1.382;2023-04-25T10:35:57;9.00;;;4.35;;
22060;SDS011;11194;48.092;-1.382;2023-04-25T10:38:24;7.82;;;4.38;;
22060;SDS011;11194;48.092;-1.382;2023-04-25T10:41:04;5.53;;;3.85;;
22060;SDS011;11194;48.092;-1.382;2023-04-25T10:43:40;7.43;;;4.10;;
22060;SDS011;11194;48.092;-1.382;2023-04-25T10:46:39;6.93;;;3.97;;
22060;SDS011;11194;48.092;-1.382;2023-04-25T10:49:01;6.75;;;3.65;;
22060;SDS011;11194;48.092;-1.382;2023-04-25T10:51:31;5.45;;;2.97;;
22060;SDS011;11194;48.092;-1.382;2023-04-25T10:53:58;5.82;;;3.42;;
22060;SDS011;11194;48.092;-1.382;2023-04-25T10:56:25;5.95;;;3.40;;
22060;SDS011;11194;48.092;-1.382;2023-04-25T10:58:51;8.80;;;4.00;;
22060;SDS011;11194;48.092;-1.382;2023-04-25T11:01:21;6.65;;;4.03;;
22060;SDS011;11194;48.092;-1.382;2023-04-25T11:03:56;7.45;;;3.60;;
22060;SDS011;11194;48.092;-1.382;2023-04-25T11:06:37;6.10;;;3.83;;
22060;SDS011;11194;48.092;-1.382;2023-04-25T11:09:11;5.32;;;3.58;;
22060;SDS011;11194;48.092;-1.382;2023-04-25T11:11:38;7.60;;;3.88;;
22060;SDS011;11194;48.092;-1.382;2023-04-25T11:14:04;6.72;;;3.90;;
22060;SDS011;11194;48.092;-1.382;2023-04-25T11:16:30;5.93;;;3.45;;
22060;SDS011;11194;48.092;-1.382;2023-04-25T11:18:57;6.60;;;3.70;;
22060;SDS011;11194;48.092;-1.382;2023-04-25T11:21:24;6.88;;;3.50;;
22060;SDS011;11194;48.092;-1.382;2023-04-25T11:23:52;6.82;;;3.97;;
22060;SDS011;11194;48.092;-1.382;2023-04-25T11:26:19;8.50;;;3.25;;
22060;SDS011;11194;48.092;-1.382;2023-04-25T11:28:45;5.82;;;3.05;;
22060;SDS011;11194;48.092;-1.382;2023-04-25T11:31:12;4.35;;;2.95;;
22060;SDS011;11194;48.092;-1.382;2023-04-25T11:33:38;5.28;;;2.72;;
22060;SDS011;11194;48.092;-1.382;2023-04-25T11:36:06;6.43;;;3.70;;
22060;SDS011;11194;48.092;-1.382;2023-04-25T11:38:32;6.07;;;3.35;;
22060;SDS011;11194;48.092;-1.382;2023-04-25T11:40:58;6.13;;;3.88;;
22060;SDS011;11194;48.092;-1.382;2023-04-25T11:43:25;5.60;;;3.03;;
22060;SDS011;11194;48.092;-1.382;2023-04-25T11:45:51;6.50;;;3.00;;
22060;SDS011;11194;48.092;-1.382;2023-04-25T11:48:18;4.70;;;3.05;;
22060;SDS011;11194;48.092;-1.382;2023-04-25T11:50:45;7.05;;;3.67;;
22060;SDS011;11194;48.092;-1.382;2023-04-25T11:53:11;5.47;;;3.58;;
22060;SDS011;11194;48.092;-1.382;2023-04-25T11:55:37;4.53;;;3.40;;
22060;SDS011;11194;48.092;-1.382;2023-04-25T11:58:05;6.57;;;3.67;;
22060;SDS011;11194;48.092;-1.382;2023-04-25T12:00:31;5.28;;;3.30;;
22060;SDS011;11194;48.092;-1.382;2023-04-25T12:02:57;5.70;;;3.47;;
22060;SDS011;11194;48.092;-1.382;2023-04-25T12:05:24;6.05;;;3.67;;
22060;SDS011;11194;48.092;-1.382;2023-04-25T12:07:51;9.30;;;3.80;;
22060;SDS011;11194;48.092;-1.382;2023-04-25T12:10:17;5.35;;;3.53;;
22060;SDS011;11194;48.092;-1.382;2023-04-25T12:12:45;5.00;;;3.28;;
22060;SDS011;11194;48.092;-1.382;2023-04-25T12:15:12;7.65;;;4.20;;
22060;SDS011;11194;48.092;-1.382;2023-04-25T12:17:40;7.60;;;3.67;;
22060;SDS011;11194;48.092;-1.382;2023-04-25T12:20:07;6.70;;;3.88;;
22060;SDS011;11194;48.092;-1.382;2023-04-25T12:22:33;5.55;;;3.40;;
22060;SDS011;11194;48.092;-1.382;2023-04-25T12:24:59;5.28;;;3.30;;
22060;SDS011;11194;48.092;-1.382;2023-04-25T12:27:28;6.50;;;3.42;;
22060;SDS011;11194;48.092;-1.382;2023-04-25T12:29:56;5.85;;;3.30;;
22060;SDS011;11194;48.092;-1.382;2023-04-25T12:32:23;5.68;;;3.88;;
22060;SDS011;11194;48.092;-1.382;2023-04-25T12:34:49;6.75;;;3.70;;
22060;SDS011;11194;48.092;-1.382;2023-04-25T12:37:15;6.75;;;3.38;;
22060;SDS011;11194;48.092;-1.382;2023-04-25T12:39:41;6.68;;;4.05;;
22060;SDS011;11194;48.092;-1.382;2023-04-25T12:42:07;7.72;;;4.72;;
22060;SDS011;11194;48.092;-1.382;2023-04-25T12:44:36;5.93;;;3.88;;
22060;SDS011;11194;48.092;-1.382;2023-04-25T12:47:02;7.15;;;4.35;;
22060;SDS011;11194;48.092;-1.382;2023-04-25T12:49:28;8.50;;;4.32;;
22060;SDS011;11194;48.092;-1.382;2023-04-25T12:51:54;8.50;;;4.45;;
22060;SDS011;11194;48.092;-1.382;2023-04-25T12:54:20;7.07;;;4.30;;
22060;SDS011;11194;48.092;-1.382;2023-04-25T12:56:46;7.85;;;4.90;;
22060;SDS011;11194;48.092;-1.382;2023-04-25T12:59:13;8.80;;;5.03;;
22060;SDS011;11194;48.092;-1.382;2023-04-25T13:01:39;8.13;;;3.92;;
22060;SDS011;11194;48.092;-1.382;2023-04-25T13:04:05;6.93;;;4.43;;
22060;SDS011;11194;48.092;-1.382;2023-04-25T13:06:31;7.07;;;4.75;;
22060;SDS011;11194;48.092;-1.382;2023-04-25T13:08:57;7.93;;;4.60;;
22060;SDS011;11194;48.092;-1.382;2023-04-25T13:11:23;8.00;;;4.80;;
22060;SDS011;11194;48.092;-1.382;2023-04-25T13:13:49;7.70;;;4.65;;
22060;SDS011;11194;48.092;-1.382;2023-04-25T13:16:15;7.95;;;4.43;;
22060;SDS011;11194;48.092;-1.382;2023-04-25T13:18:41;6.47;;;4.60;;
22060;SDS011;11194;48.092;-1.382;2023-04-25T13:21:09;5.90;;;4.05;;
22060;SDS011;11194;48.092;-1.382;2023-04-25T13:23:36;5.03;;;3.60;;
22060;SDS011;11194;48.092;-1.382;2023-04-25T13:26:02;7.38;;;4.15;;
22060;SDS011;11194;48.092;-1.382;2023-04-25T13:28:28;8.18;;;5.18;;
22060;SDS011;11194;48.092;-1.382;2023-04-25T13:30:54;5.82;;;4.43;;
22060;SDS011;11194;48.092;-1.382;2023-04-25T13:33:20;6.95;;;4.63;;
22060;SDS011;11194;48.092;-1.382;2023-04-25T13:35:47;6.50;;;4.43;;
22060;SDS011;11194;48.092;-1.382;2023-04-25T13:38:22;10.05;;;4.60;;
22060;SDS011;11194;48.092;-1.382;2023-04-25T13:40:48;7.75;;;3.83;;
22060;SDS011;11194;48.092;-1.382;2023-04-25T13:43:15;6.63;;;4.53;;
22060;SDS011;11194;48.092;-1.382;2023-04-25T13:45:41;6.60;;;4.38;;
22060;SDS011;11194;48.092;-1.382;2023-04-25T13:48:07;6.70;;;4.22;;
22060;SDS011;11194;48.092;-1.382;2023-04-25T13:50:33;7.38;;;4.60;;
22060;SDS011;11194;48.092;-1.382;2023-04-25T13:53:00;6.60;;;4.15;;
22060;SDS011;11194;48.092;-1.382;2023-04-25T13:55:26;8.00;;;4.60;;
22060;SDS011;11194;48.092;-1.382;2023-04-25T13:57:52;6.78;;;4.80;;
22060;SDS011;11194;48.092;-1.382;2023-04-25T14:00:18;7.07;;;4.47;;
22060;SDS011;11194;48.092;-1.382;2023-04-25T14:02:45;7.53;;;5.45;;
22060;SDS011;11194;48.092;-1.382;2023-04-25T14:05:11;8.75;;;5.18;;
22060;SDS011;11194;48.092;-1.382;2023-04-25T14:07:38;7.65;;;4.55;;
22060;SDS011;11194;48.092;-1.382;2023-04-25T14:10:04;5.68;;;3.90;;
22060;SDS011;11194;48.092;-1.382;2023-04-25T14:12:30;7.38;;;4.60;;
22060;SDS011;11194;48.092;-1.382;2023-04-25T14:14:57;8.23;;;5.10;;
22060;SDS011;11194;48.092;-1.382;2023-04-25T14:17:23;7.72;;;4.35;;
22060;SDS011;11194;48.092;-1.382;2023-04-25T14:19:49;7.10;;;4.18;;
22060;SDS011;11194;48.092;-1.382;2023-04-25T14:22:15;6.82;;;4.07;;
22060;SDS011;11194;48.092;-1.382;2023-04-25T14:24:42;6.72;;;4.00;;
22060;SDS011;11194;48.092;-1.382;2023-04-25T14:27:08;7.18;;;3.90;;
22060;SDS011;11194;48.092;-1.382;2023-04-25T14:29:34;6.78;;;4.50;;
22060;SDS011;11194;48.092;-1.382;2023-04-25T14:32:00;6.68;;;4.40;;
22060;SDS011;11194;48.092;-1.382;2023-04-25T14:34:27;5.90;;;4.35;;
22060;SDS011;11194;48.092;-1.382;2023-04-25T14:36:53;5.95;;;4.32;;
22060;SDS011;11194;48.092;-1.382;2023-04-25T14:39:19;7.68;;;4.07;;
22060;SDS011;11194;48.092;-1.382;2023-04-25T14:41:45;6.22;;;4.28;;
22060;SDS011;11194;48.092;-1.382;2023-04-25T14:44:12;6.50;;;4.10;;
22060;SDS011;11194;48.092;-1.382;2023-04-25T14:46:38;5.85;;;4.20;;
22060;SDS011;11194;48.092;-1.382;2023-04-25T14:49:04;6.15;;;3.72;;
22060;SDS011;11194;48.092;-1.382;2023-04-25T14:51:30;5.47;;;3.83;;
22060;SDS011;11194;48.092;-1.382;2023-04-25T14:53:56;6.60;;;3.65;;
22060;SDS011;11194;48.092;-1.382;2023-04-25T14:56:23;5.35;;;3.60;;
22060;SDS011;11194;48.092;-1.382;2023-04-25T14:58:49;5.13;;;3.40;;
22060;SDS011;11194;48.092;-1.382;2023-04-25T15:01:15;5.57;;;3.70;;
22060;SDS011;11194;48.092;-1.382;2023-04-25T15:03:41;6.00;;;3.53;;
22060;SDS011;11194;48.092;-1.382;2023-04-25T15:06:08;4.80;;;3.47;;
22060;SDS011;11194;48.092;-1.382;2023-04-25T15:08:34;5.25;;;3.63;;
22060;SDS011;11194;48.092;-1.382;2023-04-25T15:11:01;7.63;;;3.50;;
22060;SDS011;11194;48.092;-1.382;2023-04-25T15:13:28;5.80;;;3.47;;
22060;SDS011;11194;48.092;-1.382;2023-04-25T15:15:54;5.40;;;3.35;;
22060;SDS011;11194;48.092;-1.382;2023-04-25T15:18:20;5.57;;;3.20;;
22060;SDS011;11194;48.092;-1.382;2023-04-25T15:20:47;6.68;;;3.58;;
22060;SDS011;11194;48.092;-1.382;2023-04-25T15:23:13;5.80;;;3.10;;
22060;SDS011;11194;48.092;-1.382;2023-04-25T15:25:40;8.10;;;3.58;;
22060;SDS011;11194;48.092;-1.382;2023-04-25T15:28:06;4.95;;;3.53;;
22060;SDS011;11194;48.092;-1.382;2023-04-25T15:30:35;4.72;;;3.30;;
22060;SDS011;11194;48.092;-1.382;2023-04-25T15:33:01;5.63;;;3.60;;
22060;SDS011;11194;48.092;-1.382;2023-04-25T15:35:27;5.32;;;3.40;;
22060;SDS011;11194;48.092;-1.382;2023-04-25T15:37:53;5.10;;;2.88;;
22060;SDS011;11194;48.092;-1.382;2023-04-25T15:40:19;4.80;;;3.10;;
22060;SDS011;11194;48.092;-1.382;2023-04-25T15:42:49;5.53;;;3.17;;
22060;SDS011;11194;48.092;-1.382;2023-04-25T15:45:16;4.93;;;3.15;;
22060;SDS011;11194;48.092;-1.382;2023-04-25T15:47:42;7.20;;;3.50;;
22060;SDS011;11194;48.092;-1.382;2023-04-25T15:50:08;5.25;;;3.17;;
22060;SDS011;11194;48.092;-1.382;2023-04-25T15:52:35;4.88;;;3.20;;
22060;SDS011;11194;48.092;-1.382;2023-04-25T15:55:02;4.97;;;3.10;;
22060;SDS011;11194;48.092;-1.382;2023-04-25T15:57:33;5.20;;;2.72;;
22060;SDS011;11194;48.092;-1.382;2023-04-25T16:00:00;4.38;;;2.53;;
22060;SDS011;11194;48.092;-1.382;2023-04-25T16:02:27;4.68;;;2.45;;
22060;SDS011;11194;48.092;-1.382;2023-04-25T16:04:54;4.00;;;2.47;;
22060;SDS011;11194;48.092;-1.382;2023-04-25T16:07:20;5.03;;;2.72;;
22060;SDS011;11194;48.092;-1.382;2023-04-25T16:09:47;4.57;;;2.85;;
22060;SDS011;11194;48.092;-1.382;2023-04-25T16:12:13;4.50;;;2.90;;
22060;SDS011;11194;48.092;-1.382;2023-04-25T16:14:39;7.45;;;3.58;;
22060;SDS011;11194;48.092;-1.382;2023-04-25T16:17:05;6.03;;;3.17;;
22060;SDS011;11194;48.092;-1.382;2023-04-25T16:19:31;5.55;;;2.80;;
22060;SDS011;11194;48.092;-1.382;2023-04-25T16:21:57;4.65;;;2.80;;
22060;SDS011;11194;48.092;-1.382;2023-04-25T16:24:23;3.67;;;2.40;;
22060;SDS011;11194;48.092;-1.382;2023-04-25T16:26:49;2.55;;;2.13;;
22060;SDS011;11194;48.092;-1.382;2023-04-25T16:29:16;5.82;;;2.55;;
22060;SDS011;11194;48.092;-1.382;2023-04-25T16:31:42;3.55;;;2.42;;
22060;SDS011;11194;48.092;-1.382;2023-04-25T16:34:08;4.57;;;2.85;;
22060;SDS011;11194;48.092;-1.382;2023-04-25T16:36:34;4.28;;;2.80;;
22060;SDS011;11194;48.092;-1.382;2023-04-25T16:39:00;5.10;;;2.80;;
22060;SDS011;11194;48.092;-1.382;2023-04-25T16:41:26;7.63;;;3.72;;
22060;SDS011;11194;48.092;-1.382;2023-04-25T16:43:53;6.68;;;3.60;;
22060;SDS011;11194;48.092;-1.382;2023-04-25T16:46:19;4.50;;;2.95;;
22060;SDS011;11194;48.092;-1.382;2023-04-25T16:48:47;3.70;;;2.80;;
22060;SDS011;11194;48.092;-1.382;2023-04-25T16:51:13;5.68;;;2.70;;
22060;SDS011;11194;48.092;-1.382;2023-04-25T16:53:40;4.85;;;2.80;;
22060;SDS011;11194;48.092;-1.382;2023-04-25T16:56:06;4.40;;;2.85;;
22060;SDS011;11194;48.092;-1.382;2023-04-25T16:58:33;3.95;;;2.72;;
22060;SDS011;11194;48.092;-1.382;2023-04-25T17:00:59;5.28;;;3.20;;